Time;durP1;ratioP1;P1;durP2;ratioP2;P2;SDS_P1;SDS_P2;PMS_P1;PMS_P2;Temp;Humidity;BMP_temperature;BMP_pressure;BME280_temperature;BME280_humidity;BME280_pressure;Samples;Min_cycle;Max_cycle;Signal;HPM_P1;HPM_P2
2021/12/31 00:04:06;;;;;;;6.03;2.22;;;;;;;11.18;100.00;101199.28;10141033;28;20047;-69
2021/12/31 00:09:04;;;;;;;5.20;3.10;;;;;;;11.22;100.00;101181.13;10137825;28;20046;-69
2021/12/31 00:14:00;;;;;;;8.65;4.07;;;;;;;11.21;100.00;101193.19;10133622;28;20042;-69
2021/12/31 00:18:56;;;;;;;7.30;5.00;;;;;;;11.21;100.00;101184.97;10131835;28;20066;-67
2021/12/31 00:23:53;;;;;;;10.32;6.07;;;;;;;11.23;100.00;101199.16;10142041;28;20042;-67
2021/12/31 00:28:49;;;;;;;8.90;5.50;;;;;;;11.25;100.00;101196.91;10130747;28;20038;-68
2021/12/31 00:33:46;;;;;;;9.98;5.25;;;;;;;11.25;100.00;101191.44;10126214;28;20134;-67
2021/12/31 00:38:42;;;;;;;10.38;6.35;;;;;;;11.25;100.00;101216.06;10144700;28;20092;-67
2021/12/31 00:43:39;;;;;;;9.15;5.70;;;;;;;11.28;100.00;101201.75;10137625;28;20066;-68
2021/12/31 00:48:35;;;;;;;10.13;5.20;;;;;;;11.28;100.00;101207.25;10116482;28;20046;-67
2021/12/31 00:53:32;;;;;;;11.95;5.78;;;;;;;11.27;100.00;101211.09;10111286;28;20039;-68
2021/12/31 00:58:30;;;;;;;12.35;6.82;;;;;;;11.28;100.00;101207.25;10129384;28;20047;-67
2021/12/31 01:03:27;;;;;;;11.52;5.43;;;;;;;11.27;100.00;101206.44;10138666;28;20181;-67
2021/12/31 01:08:23;;;;;;;13.60;8.27;;;;;;;11.24;100.00;101218.00;10130620;28;20120;-67
2021/12/31 01:13:30;;;;;;;13.88;8.00;;;;;;;11.25;100.00;101235.25;10123546;28;20085;-69
2021/12/31 01:19:44;;;;;;;17.17;9.00;;;;;;;11.25;100.00;101235.25;10124336;28;20088;-69
2021/12/31 01:23:43;;;;;;;17.35;8.63;;;;;;;11.23;100.00;101226.53;10122235;28;20039;-70
2021/12/31 01:28:39;;;;;;;14.50;9.23;;;;;;;11.25;100.00;101213.34;10122420;28;20074;-69
2021/12/31 01:33:36;;;;;;;18.40;9.10;;;;;;;11.25;100.00;101219.63;10138958;28;20050;-68
2021/12/31 01:38:34;;;;;;;17.00;8.93;;;;;;;11.21;100.00;101201.38;10141854;28;20049;-68
2021/12/31 01:43:31;;;;;;;14.70;8.10;;;;;;;11.23;100.00;101221.06;10144309;28;20599;-68
2021/12/31 01:48:37;;;;;;;15.15;8.05;;;;;;;11.22;100.00;101224.91;10125889;28;20065;-67
2021/12/31 01:53:34;;;;;;;19.63;7.47;;;;;;;11.22;100.00;101231.19;10132888;28;20550;-67
2021/12/31 01:58:30;;;;;;;19.77;8.13;;;;;;;11.22;100.00;101230.41;10118790;28;20116;-67
2021/12/31 02:03:27;;;;;;;18.50;6.47;;;;;;;11.22;100.00;101236.66;10142302;28;20046;-68
2021/12/31 02:08:23;;;;;;;15.82;6.75;;;;;;;11.19;100.00;101247.44;10139524;28;20047;-66
2021/12/31 02:13:20;;;;;;;15.70;6.93;;;;;;;11.21;100.00;101253.41;10141274;28;20526;-67
2021/12/31 02:18:18;;;;;;;16.98;5.43;;;;;;;11.18;100.00;101270.44;10129130;28;20785;-67
2021/12/31 02:23:24;;;;;;;25.75;6.88;;;;;;;11.22;100.00;101269.50;10132431;28;20042;-68
2021/12/31 02:28:21;;;;;;;20.13;6.70;;;;;;;11.22;100.00;101266.78;10113407;28;20081;-68
2021/12/31 02:33:17;;;;;;;13.77;5.22;;;;;;;11.22;100.00;101257.75;10114818;28;20045;-68
2021/12/31 02:38:14;;;;;;;18.83;5.68;;;;;;;11.23;100.00;101259.38;10117818;28;20422;-67
2021/12/31 02:43:11;;;;;;;17.83;6.20;;;;;;;11.20;100.00;101246.31;10136689;28;20066;-67
2021/12/31 02:48:08;;;;;;;15.88;5.70;;;;;;;11.16;100.00;101257.88;10138472;28;20046;-67
2021/12/31 02:53:08;;;;;;;16.42;4.95;;;;;;;11.16;100.00;101255.16;10125583;28;20562;-67
2021/12/31 02:58:06;;;;;;;18.00;5.97;;;;;;;11.18;100.00;101240.34;10134910;28;20046;-67
2021/12/31 03:03:06;;;;;;;17.60;5.22;;;;;;;11.21;100.00;101239.72;10124053;28;20125;-67
2021/12/31 03:08:05;;;;;;;16.00;5.20;;;;;;;11.21;100.00;101245.19;10130517;28;20053;-67
2021/12/31 03:13:02;;;;;;;15.98;5.32;;;;;;;11.20;100.00;101221.69;10136490;28;20070;-67
2021/12/31 03:18:03;;;;;;;18.35;6.28;;;;;;;11.23;100.00;101221.88;10141501;28;20590;-67
2021/12/31 03:22:59;;;;;;;16.48;5.85;;;;;;;11.23;100.00;101232.00;10123610;28;20086;-66
2021/12/31 03:27:56;;;;;;;10.25;5.55;;;;;;;11.23;100.00;101210.09;10142711;28;20062;-67
2021/12/31 03:32:53;;;;;;;16.60;5.00;;;;;;;11.24;100.00;101219.94;10140639;28;20047;-67
2021/12/31 03:37:50;;;;;;;18.60;5.32;;;;;;;11.26;100.00;101220.44;10125299;28;20074;-66
2021/12/31 03:42:46;;;;;;;10.68;4.18;;;;;;;11.26;100.00;101224.00;10130472;28;20125;-68
2021/12/31 03:47:43;;;;;;;16.17;4.57;;;;;;;11.28;100.00;101223.66;10146119;28;20103;-69
2021/12/31 03:52:40;;;;;;;12.45;4.40;;;;;;;11.26;100.00;101220.44;10131813;28;20046;-68
2021/12/31 03:57:38;;;;;;;14.20;4.85;;;;;;;11.25;100.00;101233.31;10129136;28;20101;-68
2021/12/31 04:02:35;;;;;;;11.98;4.65;;;;;;;11.26;100.00;101236.88;10140097;28;20039;-68
2021/12/31 04:07:32;;;;;;;16.23;3.55;;;;;;;11.26;100.00;101223.19;10129225;28;20422;-68
2021/12/31 04:12:29;;;;;;;16.45;4.85;;;;;;;11.23;100.00;101215.56;10127318;28;20491;-68
2021/12/31 04:17:25;;;;;;;18.60;4.93;;;;;;;11.19;100.00;101225.56;10124739;28;20514;-68
2021/12/31 04:22:24;;;;;;;26.02;5.75;;;;;;;11.18;100.00;101223.91;10130780;28;20492;-68
2021/12/31 04:27:22;;;;;;;19.13;5.55;;;;;;;11.17;100.00;101223.09;10124446;28;20141;-68
2021/12/31 04:32:23;;;;;;;16.48;5.32;;;;;;;11.19;100.00;101247.44;10133875;28;20105;-67
2021/12/31 04:37:20;;;;;;;18.92;5.32;;;;;;;11.16;100.00;101222.31;10128697;28;20063;-67
2021/12/31 04:42:16;;;;;;;12.45;4.22;;;;;;;11.16;100.00;101230.53;10127527;28;20101;-66
2021/12/31 04:47:15;;;;;;;12.70;3.90;;;;;;;11.15;100.00;101217.94;10128835;28;20511;-66
2021/12/31 04:52:12;;;;;;;15.02;4.15;;;;;;;11.18;100.00;101221.19;10131058;28;20109;-67
2021/12/31 04:57:08;;;;;;;18.00;3.67;;;;;;;11.18;100.00;101202.00;10124136;28;20447;-70
2021/12/31 05:02:05;;;;;;;14.90;3.47;;;;;;;11.24;100.00;101218.00;10132577;28;20450;-67
2021/12/31 05:07:01;;;;;;;15.23;3.28;;;;;;;11.27;100.00;101216.59;10139929;28;20060;-68
2021/12/31 05:11:58;;;;;;;17.10;3.38;;;;;;;11.31;100.00;101206.63;10132498;28;20154;-67
2021/12/31 05:16:56;;;;;;;11.18;2.85;;;;;;;11.36;100.00;101214.72;10137937;28;20049;-68
2021/12/31 05:21:52;;;;;;;16.38;3.55;;;;;;;11.33;100.00;101220.81;10145301;28;20058;-69
2021/12/31 05:26:49;;;;;;;19.30;3.55;;;;;;;11.36;100.00;101199.09;10140112;28;20046;-67
2021/12/31 05:31:45;;;;;;;13.82;3.47;;;;;;;11.40;100.00;101193.03;10136743;28;20050;-69
2021/12/31 05:36:41;;;;;;;12.02;3.35;;;;;;;11.42;100.00;101186.09;10140230;28;20070;-69
2021/12/31 05:41:39;;;;;;;12.65;3.53;;;;;;;11.45;100.00;101188.22;10128971;28;20070;-69
2021/12/31 05:46:40;;;;;;;12.20;2.78;;;;;;;11.44;100.00;101186.59;10113225;28;20074;-69
2021/12/31 05:51:37;;;;;;;14.20;3.78;;;;;;;11.42;100.00;101194.31;10128354;28;20043;-69
2021/12/31 05:56:34;;;;;;;14.88;3.58;;;;;;;11.44;100.00;101194.81;10118162;28;20596;-68
2021/12/31 06:01:30;;;;;;;14.20;3.65;;;;;;;11.47;100.00;101187.91;10133094;28;20510;-69
2021/12/31 06:06:27;;;;;;;10.40;3.58;;;;;;;11.49;100.00;101197.44;10113359;28;20717;-68
2021/12/31 06:11:24;;;;;;;11.57;3.63;;;;;;;11.50;100.00;101187.28;10118918;28;20050;-70
2021/12/31 06:16:20;;;;;;;14.55;4.93;;;;;;;11.51;100.00;101184.22;10128642;28;20070;-70
2021/12/31 06:21:17;;;;;;;8.68;3.80;;;;;;;11.54;100.00;101177.31;10121550;28;20113;-70
2021/12/31 06:26:14;;;;;;;12.38;3.88;;;;;;;11.54;100.00;101158.94;10123494;28;20130;-69
2021/12/31 06:31:10;;;;;;;13.95;4.68;;;;;;;11.57;100.00;101155.56;10139811;28;20070;-68
2021/12/31 06:36:07;;;;;;;14.50;5.28;;;;;;;11.53;100.00;101165.56;10124536;28;20521;-68
2021/12/31 06:41:03;;;;;;;10.07;4.85;;;;;;;11.50;100.00;101159.88;10134317;28;20050;-69
2021/12/31 06:46:00;;;;;;;11.77;5.15;;;;;;;11.51;100.00;101151.38;10139686;28;20526;-69
2021/12/31 06:50:56;;;;;;;14.75;5.63;;;;;;;11.52;100.00;101135.75;10140429;28;20129;-69
2021/12/31 06:55:53;;;;;;;10.40;5.82;;;;;;;11.49;100.00;101142.66;10139383;28;20046;-68
2021/12/31 07:00:49;;;;;;;14.68;5.85;;;;;;;11.48;100.00;101153.91;10134211;28;20070;-68
2021/12/31 07:05:46;;;;;;;11.63;6.20;;;;;;;11.50;100.00;101157.16;10124429;28;20049;-68
2021/12/31 07:10:43;;;;;;;12.45;6.32;;;;;;;11.50;100.00;101149.75;10126885;28;20049;-68
2021/12/31 07:15:48;;;;;;;14.13;6.72;;;;;;;11.54;100.00;101155.41;10123728;28;20078;-68
2021/12/31 07:20:44;;;;;;;10.75;5.90;;;;;;;11.57;100.00;101166.53;10138617;28;20042;-68
2021/12/31 07:25:42;;;;;;;12.32;6.32;;;;;;;11.56;100.00;101164.94;10146461;28;20529;-67
2021/12/31 07:30:43;;;;;;;12.93;7.22;;;;;;;11.59;100.00;101164.28;10122938;28;20558;-69
2021/12/31 07:35:39;;;;;;;11.18;7.07;;;;;;;11.60;100.00;101143.19;10134878;28;20085;-69
2021/12/31 07:40:41;;;;;;;15.93;8.00;;;;;;;11.59;100.00;101149.78;10135363;28;20067;-69
2021/12/31 07:45:38;;;;;;;12.77;6.90;;;;;;;11.61;100.00;101138.53;10129859;28;20050;-69
2021/12/31 07:50:36;;;;;;;12.73;5.60;;;;;;;11.63;100.00;101148.06;10132462;28;20046;-69
2021/12/31 07:55:34;;;;;;;10.55;6.68;;;;;;;11.65;100.00;101161.41;10145418;28;20510;-69
2021/12/31 08:00:32;;;;;;;14.32;7.85;;;;;;;11.67;100.00;101159.16;10161956;28;20100;-69
2021/12/31 08:05:30;;;;;;;11.02;6.30;;;;;;;11.68;100.00;101150.66;10160808;28;20081;-69
2021/12/31 08:10:26;;;;;;;8.90;5.65;;;;;;;11.72;100.00;101161.78;10142306;28;20396;-68
2021/12/31 08:15:49;;;;;;;11.88;6.20;;;;;;;11.75;100.00;101156.47;10144374;28;20053;-69
2021/12/31 08:20:45;;;;;;;8.73;5.10;;;;;;;11.78;100.00;101158.59;10143257;28;20127;-67
2021/12/31 08:25:42;;;;;;;8.65;5.63;;;;;;;11.79;100.00;101145.72;10148265;28;20506;-67
2021/12/31 08:30:39;;;;;;;8.95;4.72;;;;;;;11.89;100.00;101150.94;10144180;28;20042;-67
2021/12/31 08:35:36;;;;;;;8.73;4.70;;;;;;;11.90;100.00;101141.59;10144307;28;20046;-67
2021/12/31 08:40:32;;;;;;;8.25;5.07;;;;;;;11.91;100.00;101137.72;10143800;28;20073;-66
2021/12/31 08:45:29;;;;;;;8.93;4.20;;;;;;;11.95;100.00;101141.47;10139272;28;20624;-66
2021/12/31 08:50:27;;;;;;;6.97;3.72;;;;;;;11.99;100.00;101145.16;10139046;28;20578;-66
2021/12/31 08:55:24;;;;;;;8.00;4.38;;;;;;;12.05;100.00;101128.59;10133242;28;20772;-65
2021/12/31 09:00:20;;;;;;;7.68;3.72;;;;;;;12.08;100.00;101136.19;10141735;28;20085;-67
2021/12/31 09:05:18;;;;;;;10.88;4.80;;;;;;;12.10;100.00;101142.94;10143713;28;20062;-66
2021/12/31 09:10:15;;;;;;;7.05;3.50;;;;;;;12.14;100.00;101156.84;10138784;28;20051;-66
2021/12/31 09:15:11;;;;;;;9.30;2.92;;;;;;;12.17;100.00;101145.22;10138627;28;20082;-68
2021/12/31 09:20:08;;;;;;;6.60;2.28;;;;;;;12.23;100.00;101152.19;10144729;28;20050;-65
2021/12/31 09:25:05;;;;;;;8.60;3.33;;;;;;;12.22;100.00;101142.34;10145560;28;20076;-66
2021/12/31 09:30:02;;;;;;;4.68;2.38;;;;;;;12.28;100.00;101154.78;10129809;28;20081;-65
2021/12/31 09:34:59;;;;;;;9.07;2.80;;;;;;;12.22;100.00;101150.56;10135204;28;20104;-68
2021/12/31 09:39:55;;;;;;;6.38;2.40;;;;;;;12.22;100.00;101153.31;10134293;28;20073;-67
2021/12/31 09:44:52;;;;;;;5.78;2.70;;;;;;;12.26;100.00;101170.75;10143693;28;20083;-67
2021/12/31 09:49:48;;;;;;;7.53;2.35;;;;;;;12.27;100.00;101183.31;10141930;28;20499;-68
2021/12/31 09:54:47;;;;;;;5.57;2.47;;;;;;;12.24;100.00;101173.00;10143045;28;20066;-68
2021/12/31 09:59:46;;;;;;;4.57;2.45;;;;;;;12.21;100.00;101162.66;10140743;28;20042;-68
2021/12/31 10:04:54;;;;;;;5.97;2.25;;;;;;;12.25;100.00;101158.13;10160233;28;20038;-69
2021/12/31 10:10:04;;;;;;;7.72;2.13;;;;;;;12.25;100.00;101158.13;10146719;28;20505;-68
2021/12/31 10:15:03;;;;;;;9.82;2.85;;;;;;;12.24;100.00;101156.53;10142731;28;20061;-68
2021/12/31 10:20:01;;;;;;;6.85;2.10;;;;;;;12.26;100.00;101170.75;10143390;28;20109;-67
2021/12/31 10:24:58;;;;;;;6.45;2.47;;;;;;;12.28;100.00;101163.00;10144970;28;20084;-68
2021/12/31 10:29:57;;;;;;;7.50;2.20;;;;;;;12.27;100.00;101177.81;10150109;28;20134;-69
2021/12/31 10:35:07;;;;;;;7.43;2.38;;;;;;;12.29;100.00;101170.09;10148415;28;20081;-67
2021/12/31 10:40:04;;;;;;;8.13;2.95;;;;;;;12.29;100.00;101153.66;10148418;28;20074;-67
2021/12/31 10:45:03;;;;;;;9.50;2.63;;;;;;;12.30;100.00;101160.75;10139628;28;20105;-67
2021/12/31 10:50:02;;;;;;;7.18;2.47;;;;;;;12.29;100.00;101164.63;10131216;28;20046;-68
2021/12/31 10:55:16;;;;;;;6.47;3.38;;;;;;;12.25;100.00;101158.13;10143707;28;20059;-70
2021/12/31 11:00:15;;;;;;;10.18;2.97;;;;;;;12.19;100.00;101164.91;10143371;28;20125;-69
2021/12/31 11:05:13;;;;;;;9.70;4.20;;;;;;;12.23;100.00;101171.38;10141376;28;20117;-69
2021/12/31 11:10:10;;;;;;;5.60;2.50;;;;;;;12.25;100.00;101152.66;10138783;28;20054;-68
2021/12/31 11:15:07;;;;;;;5.47;2.58;;;;;;;12.26;100.00;101146.06;10100669;28;20150;-69
2021/12/31 11:20:05;;;;;;;7.13;2.63;;;;;;;12.27;100.00;101160.56;10106797;28;20113;-68
2021/12/31 11:25:25;;;;;;;5.20;2.30;;;;;;;12.26;100.00;101148.81;10104493;28;20078;-69
2021/12/31 11:30:44;;;;;;;7.93;2.55;;;;;;;12.28;100.00;101157.53;10098178;28;20085;-68
2021/12/31 11:35:44;;;;;;;9.25;2.95;;;;;;;12.27;100.00;101123.00;10105104;28;20050;-70
2021/12/31 11:40:50;;;;;;;7.25;2.95;;;;;;;12.36;100.00;101140.28;10149441;28;20066;-70
2021/12/31 11:46:08;;;;;;;9.93;3.70;;;;;;;12.36;100.00;101148.50;10144488;28;20129;-70
2021/12/31 11:51:05;;;;;;;6.85;2.58;;;;;;;12.32;100.00;101139.31;10144040;28;20042;-71
2021/12/31 11:56:05;;;;;;;5.82;2.75;;;;;;;12.35;100.00;101130.44;10136901;28;20096;-71
2021/12/31 12:01:52;;;;;;;7.38;2.20;;;;;;;12.30;100.00;101138.00;10139837;28;20578;-71
2021/12/31 12:07:05;;;;;;;12.50;3.28;;;;;;;12.11;100.00;101141.00;10141141;28;20089;-71
2021/12/31 12:12:03;;;;;;;7.38;2.78;;;;;;;12.09;100.00;101132.28;10134530;28;20085;-71
2021/12/31 12:17:00;;;;;;;6.47;2.58;;;;;;;11.96;100.00;101129.38;10145177;28;20054;-71
2021/12/31 12:21:57;;;;;;;16.52;3.40;;;;;;;11.86;100.00;101132.38;10143526;28;20421;-72
2021/12/31 12:26:53;;;;;;;9.07;3.30;;;;;;;11.77;100.00;101123.31;10146015;28;20046;-71
2021/12/31 12:32:10;;;;;;;6.80;3.60;;;;;;;11.69;100.00;101130.34;10142251;28;20502;-71
2021/12/31 12:37:06;;;;;;;8.25;3.90;;;;;;;11.65;100.00;101134.03;10143155;28;20070;-71
2021/12/31 12:42:07;;;;;;;11.30;4.15;;;;;;;11.63;100.00;101109.72;10134969;28;20647;-72
2021/12/31 12:47:04;;;;;;;8.90;4.28;;;;;;;11.59;100.00;101136.91;10137641;28;20073;-71
2021/12/31 12:52:11;;;;;;;12.48;5.72;;;;;;;11.52;100.00;101125.59;10139900;28;20098;-72
2021/12/31 12:57:08;;;;;;;12.30;6.60;;;;;;;11.50;100.00;101111.41;10140526;28;20069;-71
2021/12/31 13:02:05;;;;;;;10.50;5.97;;;;;;;11.45;100.00;101108.00;10139082;28;20128;-71
2021/12/31 13:07:07;;;;;;;11.85;6.85;;;;;;;11.37;100.00;101101.34;10139358;28;20565;-72
2021/12/31 13:12:04;;;;;;;10.48;7.20;;;;;;;11.27;100.00;101118.03;10134800;28;20066;-70
2021/12/31 13:17:02;;;;;;;15.10;8.05;;;;;;;11.27;100.00;101129.00;10140206;28;20543;-71
2021/12/31 13:22:10;;;;;;;17.55;8.55;;;;;;;11.26;100.00;101116.44;10138651;28;20763;-70
2021/12/31 13:27:10;;;;;;;10.40;8.15;;;;;;;11.22;100.00;101104.50;10137060;28;20073;-71
2021/12/31 13:32:17;;;;;;;12.85;8.70;;;;;;;11.25;100.00;101115.59;10134611;28;20046;-71
2021/12/31 13:37:35;;;;;;;13.60;8.65;;;;;;;11.19;100.00;101105.13;10135717;28;20502;-71
2021/12/31 13:42:31;;;;;;;14.50;9.30;;;;;;;11.19;100.00;101105.91;10136495;28;20192;-71
2021/12/31 13:47:28;;;;;;;14.23;8.52;;;;;;;11.14;100.00;101119.75;10139428;28;20112;-71
2021/12/31 13:52:31;;;;;;;15.65;8.60;;;;;;;11.18;100.00;101114.44;10141061;28;20076;-71
2021/12/31 13:57:29;;;;;;;;;;;;;;;11.15;100.00;101113.94;10138515;28;20577;-70
2021/12/31 14:02:27;;;;;;;16.50;8.98;;;;;;;11.19;100.00;101119.59;10160142;28;19940;-70
2021/12/31 14:12:51;;;;;;;11.45;7.68;;;;;;;11.16;100.00;101115.56;10142046;28;20567;-70
2021/12/31 14:17:50;;;;;;;14.23;8.82;;;;;;;11.10;100.00;101141.44;10139554;28;20042;-70
2021/12/31 14:22:50;;;;;;;19.13;10.32;;;;;;;11.06;100.00;101142.38;10142824;28;20043;-71
2021/12/31 14:27:46;;;;;;;16.80;9.52;;;;;;;11.07;100.00;101147.53;10138377;28;20620;-70
2021/12/31 14:32:43;;;;;;;17.95;10.27;;;;;;;11.06;100.00;101151.38;10139799;28;20043;-70
2021/12/31 14:37:41;;;;;;;17.23;9.20;;;;;;;10.99;100.00;101140.06;10131843;28;20076;-71
2021/12/31 14:42:38;;;;;;;17.65;11.48;;;;;;;10.99;100.00;101134.59;10133164;28;20125;-71
2021/12/31 14:47:36;;;;;;;18.20;12.43;;;;;;;10.99;100.00;101140.06;10137286;28;20073;-71
2021/12/31 14:52:34;;;;;;;13.63;11.45;;;;;;;10.93;100.00;101133.09;10145467;28;20046;-71
2021/12/31 14:57:33;;;;;;;17.10;11.52;;;;;;;10.91;100.00;101138.09;10140754;28;20046;-71
2021/12/31 15:02:29;;;;;;;13.13;9.48;;;;;;;10.87;100.00;101154.28;10140292;28;20524;-70
2021/12/31 15:07:26;;;;;;;19.52;10.18;;;;;;;10.86;100.00;101146.38;10142539;28;20080;-71
2021/12/31 15:12:23;;;;;;;14.07;10.02;;;;;;;10.85;100.00;101169.41;10140083;28;20058;-69
2021/12/31 15:17:20;;;;;;;15.10;9.98;;;;;;;10.85;100.00;101155.72;10138976;28;20137;-69
2021/12/31 15:22:16;;;;;;;12.63;9.07;;;;;;;10.84;100.00;101159.59;10158625;28;20054;-70
2021/12/31 15:27:14;;;;;;;12.55;7.95;;;;;;;10.75;100.00;101178.66;10137434;28;20104;-70
2021/12/31 15:32:10;;;;;;;14.05;9.80;;;;;;;10.79;100.00;101176.09;10142686;28;20046;-70
2021/12/31 15:37:07;;;;;;;13.13;8.90;;;;;;;10.83;100.00;101171.63;10141975;28;20117;-70
2021/12/31 15:42:04;;;;;;;11.68;8.80;;;;;;;10.80;100.00;101180.47;10144082;28;20050;-70
2021/12/31 15:47:01;;;;;;;11.00;7.93;;;;;;;10.78;100.00;101183.50;10160269;28;20503;-71
2021/12/31 15:51:58;;;;;;;13.13;8.38;;;;;;;10.79;100.00;101195.25;10135082;28;20055;-71
2021/12/31 15:56:55;;;;;;;9.00;6.85;;;;;;;10.73;100.00;101194.56;10133460;28;20080;-70
2021/12/31 16:01:51;;;;;;;14.40;9.07;;;;;;;10.74;100.00;101202.47;10138357;28;20046;-70
2021/12/31 16:06:50;;;;;;;13.73;8.82;;;;;;;10.70;100.00;101215.13;10137096;28;20701;-71
2021/12/31 16:11:46;;;;;;;10.07;7.00;;;;;;;10.72;100.00;101223.84;10138682;28;20113;-71
2021/12/31 16:16:43;;;;;;;10.05;6.40;;;;;;;10.71;100.00;101227.66;10143197;28;20074;-73
2021/12/31 16:21:39;;;;;;;11.45;6.22;;;;;;;10.67;100.00;101221.19;10147836;28;20062;-72
2021/12/31 16:26:36;;;;;;;9.27;5.03;;;;;;;10.62;100.00;101229.50;10145375;28;20116;-71
2021/12/31 16:31:33;;;;;;;7.35;4.72;;;;;;;10.61;100.00;101238.84;10138755;28;20066;-70
2021/12/31 16:36:29;;;;;;;8.75;5.00;;;;;;;10.62;100.00;101240.44;10144466;28;20056;-70
2021/12/31 16:41:27;;;;;;;7.15;4.55;;;;;;;10.61;100.00;101241.56;10144016;28;20065;-70
2021/12/31 16:46:23;;;;;;;6.70;4.43;;;;;;;10.65;100.00;101245.31;10143569;28;20563;-70
2021/12/31 16:51:20;;;;;;;9.13;4.88;;;;;;;10.66;100.00;101246.13;10132967;28;20146;-70
2021/12/31 16:56:16;;;;;;;6.82;4.78;;;;;;;10.67;100.00;101259.47;10132800;28;20050;-71
2021/12/31 17:01:13;;;;;;;5.30;3.75;;;;;;;10.68;100.00;101260.31;10134012;28;20054;-71
2021/12/31 17:06:12;;;;;;;7.10;4.40;;;;;;;10.66;100.00;101263.34;10129827;28;20109;-71
2021/12/31 17:11:08;;;;;;;7.20;4.00;;;;;;;10.64;100.00;101273.75;10138331;28;20162;-72
2021/12/31 17:16:07;;;;;;;6.38;3.42;;;;;;;10.64;100.00;101303.03;10133230;28;20074;-71
2021/12/31 17:21:04;;;;;;;6.75;3.97;;;;;;;10.65;100.00;101289.06;10130081;28;20475;-72
2021/12/31 17:26:03;;;;;;;6.93;4.05;;;;;;;10.66;100.00;101312.56;10099092;28;20051;-71
2021/12/31 17:30:59;;;;;;;6.43;3.28;;;;;;;10.65;100.00;101316.41;10097311;28;20055;-69
2021/12/31 17:35:56;;;;;;;6.65;4.15;;;;;;;10.65;100.00;101321.88;10109561;28;20046;-70
2021/12/31 17:40:53;;;;;;;6.25;3.67;;;;;;;10.65;100.00;101326.53;10141686;28;20125;-70
2021/12/31 17:45:50;;;;;;;6.72;3.92;;;;;;;10.67;100.00;101340.72;10143722;28;20391;-70
2021/12/31 17:50:46;;;;;;;8.35;5.57;;;;;;;10.68;100.00;101336.88;10144101;28;20097;-70
2021/12/31 17:55:43;;;;;;;11.93;7.00;;;;;;;10.68;100.00;101337.69;10132889;28;20039;-71
2021/12/31 18:00:39;;;;;;;8.73;5.57;;;;;;;10.70;100.00;101357.34;10126750;28;20061;-71
2021/12/31 18:05:39;;;;;;;8.43;6.18;;;;;;;10.66;100.00;101378.19;10130547;28;20138;-71
2021/12/31 18:10:36;;;;;;;11.38;6.13;;;;;;;10.71;100.00;101369.88;10125441;28;20042;-71
2021/12/31 18:15:33;;;;;;;9.98;7.55;;;;;;;10.73;100.00;101381.34;10138793;28;20070;-71
2021/12/31 18:20:30;;;;;;;14.70;9.35;;;;;;;10.77;100.00;101394.41;10137944;28;20050;-71
2021/12/31 18:25:26;;;;;;;14.05;8.25;;;;;;;10.77;100.00;101381.56;10128246;28;20049;-72
2021/12/31 18:30:23;;;;;;;14.65;8.85;;;;;;;10.81;100.00;101409.09;10141356;28;20709;-71
2021/12/31 18:35:19;;;;;;;16.42;8.60;;;;;;;10.81;100.00;101400.91;10131838;28;20056;-69
2021/12/31 18:40:16;;;;;;;19.67;10.80;;;;;;;10.82;100.00;101403.34;10139141;28;20058;-72
2021/12/31 18:45:12;;;;;;;18.80;10.70;;;;;;;10.84;100.00;101406.59;10138072;28;20145;-71
2021/12/31 18:50:16;;;;;;;21.52;12.48;;;;;;;10.86;100.00;101419.94;10145958;28;20050;-71
2021/12/31 18:55:13;;;;;;;21.95;12.85;;;;;;;10.83;100.00;101420.56;10133325;28;20055;-71
2021/12/31 19:00:11;;;;;;;21.58;13.15;;;;;;;10.84;100.00;101428.47;10142658;28;20518;-71
2021/12/31 19:05:08;;;;;;;28.25;15.07;;;;;;;10.87;100.00;101440.72;10151004;28;20046;-71
2021/12/31 19:10:05;;;;;;;26.30;15.30;;;;;;;10.88;100.00;101440.41;10141391;28;20054;-71
2021/12/31 19:15:03;;;;;;;26.00;13.85;;;;;;;10.88;100.00;101456.03;10151289;28;20086;-71
2021/12/31 19:20:02;;;;;;;28.63;14.07;;;;;;;10.86;100.00;101458.25;10136892;28;20113;-70
2021/12/31 19:24:59;;;;;;;22.60;12.27;;;;;;;10.85;100.00;101473.03;10156460;28;20042;-71
2021/12/31 19:29:56;;;;;;;24.70;13.00;;;;;;;10.86;100.00;101474.66;10130268;28;20097;-71
2021/12/31 19:34:54;;;;;;;21.58;14.02;;;;;;;10.83;100.00;101481.53;10162819;28;20070;-71
2021/12/31 19:39:51;;;;;;;25.02;15.00;;;;;;;10.83;100.00;101480.75;10126532;28;20078;-71
2021/12/31 19:44:48;;;;;;;18.08;11.23;;;;;;;10.86;100.00;101483.69;10144939;28;20047;-72
2021/12/31 19:49:47;;;;;;;18.00;11.25;;;;;;;10.82;100.00;101488.16;10133220;28;20141;-72
2021/12/31 19:54:43;;;;;;;17.48;10.77;;;;;;;10.83;100.00;101486.22;10137153;28;20125;-72
2021/12/31 19:59:40;;;;;;;22.65;13.75;;;;;;;10.85;100.00;101500.41;10125175;28;20051;-71
2021/12/31 20:04:38;;;;;;;17.58;10.65;;;;;;;10.85;100.00;101505.88;10135848;28;20068;-71
2021/12/31 20:09:35;;;;;;;19.98;11.35;;;;;;;10.83;100.00;101516.31;10127728;28;20042;-72
2021/12/31 20:14:34;;;;;;;20.92;12.43;;;;;;;10.87;100.00;101509.13;10134770;28;20055;-71
2021/12/31 20:19:32;;;;;;;23.10;12.80;;;;;;;10.84;100.00;101521.50;10137377;28;20162;-71
2021/12/31 20:24:29;;;;;;;16.70;11.20;;;;;;;10.82;100.00;101528.38;10124817;28;20053;-71
2021/12/31 20:29:28;;;;;;;17.90;11.43;;;;;;;10.81;100.00;101533.00;10118465;28;20161;-72
2021/12/31 20:34:24;;;;;;;17.33;10.75;;;;;;;10.83;100.00;101538.19;10132199;28;20066;-71
2021/12/31 20:39:21;;;;;;;18.20;11.80;;;;;;;10.84;100.00;101537.91;10141657;28;20101;-71
2021/12/31 20:44:18;;;;;;;31.25;20.88;;;;;;;10.82;100.00;101545.59;10136846;28;20043;-70
2021/12/31 20:49:17;;;;;;;19.95;12.05;;;;;;;10.84;100.00;101548.03;10132204;28;20094;-72
2021/12/31 20:54:15;;;;;;;19.27;12.13;;;;;;;10.85;100.00;101549.66;10123354;28;20129;-71
2021/12/31 20:59:13;;;;;;;23.58;12.63;;;;;;;10.83;100.00;101551.88;10133971;28;20518;-71
2021/12/31 21:04:13;;;;;;;29.35;12.65;;;;;;;10.82;100.00;101566.66;10133161;28;20137;-71
2021/12/31 21:09:09;;;;;;;20.52;11.85;;;;;;;10.85;100.00;101566.06;10132843;28;20065;-71
2021/12/31 21:14:06;;;;;;;30.13;15.18;;;;;;;10.84;100.00;101569.94;10127611;28;20042;-71
2021/12/31 21:19:02;;;;;;;29.55;13.48;;;;;;;10.84;100.00;101576.19;10124887;28;20735;-70
2021/12/31 21:23:59;;;;;;;32.28;13.68;;;;;;;10.84;100.00;101575.41;10129288;28;20042;-70
2021/12/31 21:28:55;;;;;;;36.00;14.02;;;;;;;10.86;100.00;101589.56;10127494;28;20066;-70
2021/12/31 21:33:52;;;;;;;32.42;13.82;;;;;;;10.83;100.00;101601.13;10137950;28;20507;-70
2021/12/31 21:38:49;;;;;;;36.08;15.27;;;;;;;10.87;100.00;101610.34;10122759;28;20071;-69
2021/12/31 21:43:45;;;;;;;41.90;14.65;;;;;;;10.87;100.00;101624.03;10123049;28;20070;-69
2021/12/31 21:48:42;;;;;;;34.05;14.77;;;;;;;10.81;100.00;101626.03;10126125;28;20054;-70
2021/12/31 21:53:39;;;;;;;28.88;12.45;;;;;;;10.88;100.00;101642.06;10130850;28;20082;-70
2021/12/31 21:58:35;;;;;;;35.45;19.48;;;;;;;10.86;100.00;101636.91;10124736;28;20046;-70
2021/12/31 22:03:32;;;;;;;35.75;12.50;;;;;;;10.85;100.00;101642.66;10121985;28;20042;-70
2021/12/31 22:08:28;;;;;;;33.70;14.43;;;;;;;10.83;100.00;101640.22;10130103;28;20085;-69
2021/12/31 22:13:25;;;;;;;40.47;15.20;;;;;;;10.85;100.00;101642.66;10142613;28;20077;-71
2021/12/31 22:18:21;;;;;;;32.05;13.68;;;;;;;10.88;100.00;101664.75;10125068;28;20104;-70
2021/12/31 22:23:20;;;;;;;41.67;14.63;;;;;;;10.90;100.00;101650.78;10136849;28;20169;-72
2021/12/31 22:28:20;;;;;;;28.92;13.73;;;;;;;10.88;100.00;101653.00;10121274;28;20106;-70